createdAt,value
2022-11-08T00:01:50.235Z,101069.31
2022-11-08T00:04:22.052Z,101081.38
2022-11-08T00:07:11.440Z,101080.94
2022-11-08T00:10:00.529Z,101013.97
2022-11-08T00:12:49.850Z,101084.69
2022-11-08T00:15:20.795Z,101075.13
2022-11-08T00:17:52.116Z,101092.63
2022-11-08T00:20:23.058Z,101083.66
2022-11-08T00:22:54.137Z,101043.47
2022-11-08T00:25:25.036Z,101110.06
2022-11-08T00:27:55.920Z,101109.66
2022-11-08T00:30:27.108Z,101102.16
2022-11-08T00:32:57.901Z,101117.75
2022-11-08T00:35:28.715Z,101113.00
2022-11-08T00:37:59.526Z,101120.28
2022-11-08T00:40:30.351Z,101121.09
2022-11-08T00:43:01.138Z,101128.81
2022-11-08T00:45:32.231Z,101134.22
2022-11-08T00:48:05.586Z,101138.41
2022-11-08T00:50:40.053Z,101142.38
2022-11-08T00:53:11.036Z,101136.09
2022-11-08T00:55:42.095Z,101144.03
2022-11-08T00:58:12.870Z,101028.09
2022-11-08T01:00:43.660Z,101073.44
2022-11-08T01:03:20.788Z,101160.28
2022-11-08T01:05:54.312Z,101077.19
2022-11-08T01:08:26.032Z,101143.00
2022-11-08T01:10:56.799Z,101160.28
2022-11-08T01:13:27.657Z,101163.81
2022-11-08T01:15:58.739Z,101154.44
2022-11-08T01:18:29.614Z,101149.22
2022-11-08T01:21:00.559Z,101178.38
2022-11-08T01:23:32.483Z,101180.88
2022-11-08T01:26:10.095Z,101157.78
2022-11-08T01:28:41.321Z,101169.22
2022-11-08T01:31:20.923Z,101182.53
2022-11-08T01:33:52.186Z,101167.97
2022-11-08T01:36:25.971Z,101185.03
2022-11-08T01:38:57.857Z,101175.06
2022-11-08T01:41:29.790Z,101187.34
2022-11-08T01:44:01.843Z,101182.53
2022-11-08T01:46:38.279Z,101166.72
2022-11-08T01:49:35.871Z,101184.63
2022-11-08T01:52:23.209Z,101155.91
2022-11-08T01:55:10.176Z,101155.06
2022-11-08T01:57:55.299Z,101189.66
2022-11-08T02:00:26.617Z,101191.28
2022-11-08T02:03:02.686Z,101132.59
2022-11-08T02:05:35.015Z,101189.44
2022-11-08T02:08:39.447Z,101191.28
2022-11-08T02:11:16.261Z,101184.63
2022-11-08T02:13:47.081Z,101177.16
2022-11-08T02:16:18.490Z,101180.06
2022-11-08T02:18:50.850Z,101166.75
2022-11-08T02:21:52.679Z,101114.72
2022-11-08T02:24:23.919Z,101185.06
2022-11-08T02:26:56.704Z,101178.38
2022-11-08T02:29:36.601Z,101177.75
2022-11-08T02:32:07.799Z,101179.22
2022-11-08T02:35:00.751Z,101157.16
2022-11-08T02:37:32.360Z,101172.56
2022-11-08T02:40:03.231Z,101175.91
2022-11-08T02:42:35.526Z,101169.00
2022-11-08T02:45:08.683Z,101164.41
2022-11-08T02:47:40.625Z,101163.97
2022-11-08T02:50:11.901Z,101139.25
2022-11-08T02:52:42.733Z,101152.75
2022-11-08T02:55:14.294Z,101147.13
2022-11-08T02:57:45.637Z,101148.56
2022-11-08T03:00:17.958Z,101153.56
2022-11-08T03:02:52.670Z,101144.41
2022-11-08T03:05:25.023Z,101140.41
2022-11-08T03:07:57.111Z,101146.69
2022-11-08T03:10:29.682Z,101154.16
2022-11-08T03:13:06.592Z,101075.97
2022-11-08T03:15:37.396Z,101139.34
2022-11-08T03:18:08.633Z,101116.72
2022-11-08T03:20:39.408Z,101140.84
2022-11-08T03:23:10.508Z,101128.75
2022-11-08T03:25:41.775Z,101134.16
2022-11-08T03:28:13.170Z,101134.44
2022-11-08T03:30:43.930Z,101120.41
2022-11-08T03:33:15.056Z,101134.38
2022-11-08T03:35:45.987Z,101125.81
2022-11-08T03:38:17.801Z,101105.00
2022-11-08T03:40:50.921Z,101107.91
2022-11-08T03:43:21.989Z,101109.13
2022-11-08T03:45:53.464Z,101109.94
2022-11-08T03:48:25.178Z,101103.06
2022-11-08T03:50:56.212Z,101082.91
2022-11-08T03:53:27.451Z,101090.34
2022-11-08T03:56:01.890Z,101070.13
2022-11-08T03:58:33.284Z,101080.72
2022-11-08T04:01:08.543Z,101084.50
2022-11-08T04:03:39.628Z,101063.66
2022-11-08T04:06:11.124Z,101077.38
2022-11-08T04:08:42.122Z,101038.69
2022-11-08T04:11:31.049Z,101051.16
2022-11-08T04:14:20.642Z,101044.66
2022-11-08T04:16:52.252Z,101038.19
2022-11-08T04:19:42.499Z,101006.19
2022-11-08T04:22:13.687Z,100984.78
2022-11-08T04:24:45.183Z,101026.91
2022-11-08T04:27:16.523Z,100994.03
2022-11-08T04:29:47.443Z,100938.88
2022-11-08T04:32:18.651Z,101021.03
2022-11-08T04:34:49.735Z,100996.47
2022-11-08T04:37:22.033Z,101013.09
2022-11-08T04:39:53.602Z,100996.81
2022-11-08T04:42:24.842Z,100989.31
2022-11-08T04:44:55.819Z,100973.31
2022-11-08T04:47:26.752Z,100978.91
2022-11-08T04:49:58.378Z,100993.22
2022-11-08T04:52:29.649Z,100979.22
2022-11-08T04:55:00.861Z,100981.34
2022-11-08T04:57:32.031Z,100980.06
2022-11-08T05:00:02.941Z,100976.06
2022-11-08T05:02:35.408Z,100980.06
2022-11-08T05:05:07.204Z,100963.41
2022-11-08T05:07:38.599Z,100965.03
2022-11-08T05:10:09.756Z,100956.28
2022-11-08T05:12:40.785Z,100965.00
2022-11-08T05:15:12.345Z,100959.56
2022-11-08T05:17:43.188Z,100954.75
2022-11-08T05:20:32.381Z,100950.16
2022-11-08T05:23:22.865Z,100954.94
2022-11-08T05:25:56.071Z,100952.06
2022-11-08T05:28:26.906Z,100922.88
2022-11-08T05:30:58.472Z,100946.97
2022-11-08T05:33:29.551Z,100928.66
2022-11-08T05:36:06.919Z,100804.63
2022-11-08T05:38:38.586Z,100927.09
2022-11-08T05:41:20.149Z,100880.47
2022-11-08T05:43:53.739Z,100748.38
2022-11-08T05:46:25.938Z,100909.75
2022-11-08T05:48:56.990Z,100885.63
2022-11-08T05:51:28.966Z,100918.41
2022-11-08T05:54:00.147Z,100885.13
2022-11-08T05:56:31.038Z,100830.72
2022-11-08T05:59:02.429Z,100888.53
2022-11-08T06:01:33.471Z,100876.59
2022-11-08T06:04:04.530Z,100867.66
2022-11-08T06:06:35.482Z,100867.44
2022-11-08T06:09:06.402Z,100864.84
2022-11-08T06:11:37.224Z,100860.03
2022-11-08T06:14:08.244Z,100848.56
2022-11-08T06:16:39.375Z,100856.03
2022-11-08T06:19:10.455Z,100851.44
2022-11-08T06:21:41.479Z,100839.34
2022-11-08T06:24:12.320Z,100832.63
2022-11-08T06:26:43.531Z,100829.91
2022-11-08T06:29:14.360Z,100825.44
2022-11-08T06:31:45.266Z,100820.84
2022-11-08T06:34:16.151Z,100797.56
2022-11-08T06:36:47.045Z,100814.38
2022-11-08T06:39:17.889Z,100814.97
2022-11-08T06:41:48.873Z,100800.81
2022-11-08T06:44:19.750Z,100807.22
2022-11-08T06:46:51.054Z,100789.56
2022-11-08T06:49:22.546Z,100800.50
2022-11-08T06:51:54.205Z,100764.13
2022-11-08T06:54:26.898Z,100791.44
2022-11-08T06:57:01.587Z,100787.19
2022-11-08T06:59:32.666Z,100748.66
2022-11-08T07:02:03.771Z,100780.09
2022-11-08T07:04:34.638Z,100780.47
2022-11-08T07:07:05.608Z,100780.25
2022-11-08T07:09:36.606Z,100771.03
2022-11-08T07:12:07.777Z,100767.84
2022-11-08T07:14:38.985Z,100776.59
2022-11-08T07:17:09.884Z,100774.47
2022-11-08T07:19:41.243Z,100728.88
2022-11-08T07:22:12.128Z,100768.59
2022-11-08T07:24:42.930Z,100750.28
2022-11-08T07:27:13.902Z,100761.38
2022-11-08T07:29:45.286Z,100759.72
2022-11-08T07:32:16.155Z,100748.63
2022-11-08T07:34:46.962Z,100757.97
2022-11-08T07:37:17.747Z,100748.81
2022-11-08T07:39:48.552Z,100757.66
2022-11-08T07:42:19.362Z,100751.66
2022-11-08T07:45:03.015Z,100755.88
2022-11-08T07:47:34.385Z,100756.72
2022-11-08T07:50:06.442Z,100743.50
2022-11-08T07:52:37.442Z,100730.28
2022-11-08T07:55:08.736Z,100729.31
2022-11-08T07:57:39.544Z,100736.91
2022-11-08T08:00:11.619Z,100736.16
2022-11-08T08:02:45.641Z,100716.22
2022-11-08T08:05:16.607Z,100705.00
2022-11-08T08:07:47.609Z,100712.78
2022-11-08T08:10:18.479Z,100707.84
2022-11-08T08:12:49.348Z,100713.25
2022-11-08T08:15:20.461Z,100707.38
2022-11-08T08:17:51.445Z,100694.84
2022-11-08T08:20:22.418Z,100713.84
2022-11-08T08:22:54.195Z,100719.63
2022-11-08T08:25:25.563Z,100719.41
2022-11-08T08:27:58.339Z,100696.00
2022-11-08T08:30:30.378Z,100714.06
2022-11-08T08:33:34.369Z,100717.38
2022-11-08T08:35:59.210Z,100710.84
2022-11-08T08:38:30.365Z,100709.84
2022-11-08T08:41:02.474Z,100703.94
2022-11-08T08:43:36.425Z,100699.09
2022-11-08T08:46:08.492Z,100676.97
2022-11-08T08:48:40.296Z,100705.69
2022-11-08T08:51:11.524Z,100699.09
2022-11-08T08:53:42.428Z,100694.69
2022-11-08T08:56:13.303Z,100699.31
2022-11-08T08:58:45.248Z,100702.47
2022-11-08T09:04:08.171Z,100718.81
2022-11-08T09:06:39.335Z,100711.72
2022-11-08T09:09:10.391Z,100714.53
2022-11-08T09:11:41.774Z,100711.72
2022-11-08T09:14:12.679Z,100723.75
2022-11-08T09:16:43.724Z,100695.63
2022-11-08T09:19:14.635Z,100650.44
2022-11-08T09:21:45.597Z,100734.13
2022-11-08T09:24:16.473Z,100728.59
2022-11-08T09:26:47.559Z,100733.44
2022-11-08T09:29:18.690Z,100725.31
2022-11-08T09:31:51.090Z,100745.13
2022-11-08T09:34:21.959Z,100743.50
2022-11-08T09:36:52.909Z,100710.84
2022-11-08T09:39:23.904Z,100738.63
2022-11-08T09:42:00.966Z,100742.06
2022-11-08T09:45:02.209Z,100746.41
2022-11-08T09:47:41.700Z,100738.84
2022-11-08T09:50:32.427Z,100744.72
2022-11-08T09:53:28.498Z,100700.66
2022-11-08T09:56:09.631Z,100744.13
2022-11-08T09:58:46.667Z,100679.38
2022-11-08T10:01:17.928Z,100761.59
2022-11-08T10:03:52.252Z,100764.53
2022-11-08T10:07:13.754Z,100760.97
2022-11-08T10:10:06.503Z,100781.03
2022-11-08T10:13:02.655Z,100774.69
2022-11-08T10:15:55.204Z,100773.94
2022-11-08T10:18:54.482Z,100773.47
2022-11-08T10:21:45.375Z,100771.09
2022-11-08T10:24:36.772Z,100770.41
2022-11-08T10:27:25.343Z,100709.84
2022-11-08T10:30:03.277Z,100763.66
2022-11-08T10:32:36.850Z,100772.28
2022-11-08T10:35:13.945Z,100772.28
2022-11-08T10:37:46.779Z,100709.84
2022-11-08T10:40:41.766Z,100781.94
2022-11-08T10:43:21.634Z,100724.13
2022-11-08T10:45:52.634Z,100794.59
2022-11-08T10:48:23.616Z,100776.25
2022-11-08T10:50:55.241Z,100797.31
2022-11-08T10:53:33.313Z,100769.00
2022-11-08T10:56:06.718Z,100797.69
2022-11-08T10:58:46.047Z,100715.94
2022-11-08T11:01:27.644Z,100797.03
2022-11-08T11:03:58.639Z,100809.06
2022-11-08T11:06:33.912Z,100790.75
2022-11-08T11:09:21.652Z,100803.88
2022-11-08T11:12:00.647Z,100811.44
2022-11-08T11:14:31.542Z,100822.25
2022-11-08T11:17:16.029Z,100798.78
2022-11-08T11:19:56.551Z,100811.44
2022-11-08T11:22:35.992Z,100814.00
2022-11-08T11:25:19.480Z,100823.88
2022-11-08T11:28:01.719Z,100775.97
2022-11-08T11:30:37.444Z,100786.72
2022-11-08T11:33:28.348Z,100837.59
2022-11-08T11:36:21.928Z,100846.53
2022-11-08T11:38:56.364Z,100851.63
2022-11-08T11:41:35.677Z,100862.25
2022-11-08T11:44:24.592Z,100841.16
2022-11-08T11:47:46.049Z,100864.78
2022-11-08T11:50:29.406Z,100808.53
2022-11-08T11:53:02.786Z,100799.06
2022-11-08T11:56:10.723Z,100870.81
2022-11-08T11:59:09.684Z,100880.03
2022-11-08T12:02:18.844Z,100871.75
2022-11-08T12:05:15.502Z,100879.56
2022-11-08T12:08:12.214Z,100885.00
2022-11-08T12:10:57.611Z,100884.56
2022-11-08T12:13:53.063Z,100887.91
2022-11-08T12:17:27.293Z,100898.75
2022-11-08T12:20:16.645Z,100907.25
2022-11-08T12:23:04.593Z,100868.91
2022-11-08T12:25:47.399Z,100917.78
2022-11-08T12:29:00.269Z,100909.28
2022-11-08T12:31:43.320Z,100919.78
2022-11-08T12:34:30.111Z,100935.22
2022-11-08T12:37:04.264Z,100925.56
2022-11-08T12:39:49.531Z,100932.28
2022-11-08T12:42:41.755Z,100939.09
2022-11-08T12:45:30.475Z,100935.41
2022-11-08T12:48:13.322Z,100949.72
2022-11-08T12:51:10.134Z,100955.84
2022-11-08T12:54:08.835Z,100953.94
2022-11-08T12:56:49.582Z,100960.66
2022-11-08T12:59:35.372Z,100895.28
2022-11-08T13:02:11.126Z,100969.97
2022-11-08T13:04:59.694Z,100897.47
2022-11-08T13:07:33.892Z,100975.03
2022-11-08T13:10:14.076Z,100971.31
2022-11-08T13:13:05.981Z,100967.19
2022-11-08T13:15:37.135Z,100973.25
2022-11-08T13:18:08.561Z,100980.78
2022-11-08T13:20:50.449Z,100954.47
2022-11-08T13:23:32.268Z,100919.22
2022-11-08T13:26:25.300Z,100984.03
2022-11-08T13:28:57.053Z,100984.78
2022-11-08T13:31:33.631Z,100982.94
2022-11-08T13:34:13.463Z,100983.56
2022-11-08T13:37:18.313Z,100980.09
2022-11-08T13:39:55.007Z,100979.22
2022-11-08T13:42:27.453Z,100982.75
2022-11-08T13:44:59.365Z,100981.94
2022-11-08T13:47:38.161Z,100983.56
2022-11-08T13:50:35.976Z,100992.00
2022-11-08T13:53:11.752Z,100984.84
2022-11-08T13:55:45.764Z,100991.91
2022-11-08T13:58:38.177Z,100984.09
2022-11-08T14:01:38.610Z,100992.44
2022-11-08T14:04:27.715Z,100989.06
2022-11-08T14:07:14.657Z,100994.88
2022-11-08T14:09:56.219Z,100915.59
2022-11-08T14:12:50.388Z,100961.25
2022-11-08T14:15:48.716Z,100991.63
2022-11-08T14:18:40.610Z,100988.09
2022-11-08T14:21:21.988Z,100995.78
2022-11-08T14:23:53.267Z,100985.81
2022-11-08T14:26:26.824Z,100862.94
2022-11-08T14:29:02.472Z,101002.22
2022-11-08T14:31:35.955Z,100979.66
2022-11-08T14:34:07.062Z,100984.44
2022-11-08T14:36:38.087Z,101011.75
2022-11-08T14:39:20.643Z,100938.78
2022-11-08T14:41:56.964Z,101026.47
2022-11-08T14:44:29.118Z,101004.88
2022-11-08T14:47:01.233Z,101016.97
2022-11-08T14:49:36.851Z,101012.47
2022-11-08T14:52:30.534Z,101007.09
2022-11-08T14:55:12.468Z,101025.41
2022-11-08T14:57:46.681Z,101031.03
2022-11-08T15:00:28.192Z,101021.69
2022-11-08T15:03:04.602Z,101018.91
2022-11-08T15:05:42.717Z,101021.75
2022-11-08T15:08:25.615Z,100939.06
2022-11-08T15:11:08.849Z,101016.38
2022-11-08T15:13:50.244Z,101018.06
2022-11-08T15:16:21.249Z,101010.34
2022-11-08T15:18:52.303Z,101006.84
2022-11-08T15:21:33.692Z,101025.16
2022-11-08T15:24:39.489Z,101020.00
2022-11-08T15:27:19.411Z,101016.03
2022-11-08T15:29:51.803Z,101025.19
2022-11-08T15:32:24.116Z,101017.28
2022-11-08T15:34:59.774Z,101020.22
2022-11-08T15:37:45.275Z,101020.41
2022-11-08T15:40:23.498Z,101003.97
2022-11-08T15:42:55.117Z,101011.28
2022-11-08T15:45:30.150Z,101022.69
2022-11-08T15:48:22.242Z,100941.25
2022-11-08T15:50:53.112Z,101027.06
2022-11-08T15:53:24.420Z,101024.38
2022-11-08T15:56:04.459Z,100994.47
2022-11-08T15:58:38.288Z,101007.75
2022-11-08T16:01:16.977Z,101029.38
2022-11-08T16:03:48.763Z,101021.06
2022-11-08T16:06:19.856Z,101010.66
2022-11-08T16:08:50.690Z,101017.34
2022-11-08T16:11:25.749Z,100944.56
2022-11-08T16:13:56.599Z,101023.56
2022-11-08T16:16:30.049Z,101019.84
2022-11-08T16:19:04.882Z,101015.25
2022-11-08T16:21:35.671Z,100999.69
2022-11-08T16:24:06.589Z,101014.84
2022-11-08T16:26:38.210Z,101025.22
2022-11-08T16:29:30.749Z,101016.47
2022-11-08T16:32:01.628Z,100966.63
2022-11-08T16:34:32.418Z,101016.91
2022-11-08T16:37:04.634Z,101021.06
2022-11-08T16:39:36.009Z,101025.63
2022-11-08T16:42:07.024Z,101013.34
2022-11-08T16:44:38.873Z,101010.25
2022-11-08T16:47:19.278Z,101025.22
2022-11-08T16:49:51.397Z,101019.19
2022-11-08T16:52:22.345Z,101015.22
2022-11-08T16:54:53.372Z,101025.22
2022-11-08T16:57:40.114Z,101025.22
2022-11-08T17:00:13.711Z,100992.78
2022-11-08T17:02:54.618Z,101003.16
2022-11-08T17:05:27.182Z,100887.44
2022-11-08T17:07:58.161Z,100998.19
2022-11-08T17:10:31.324Z,100998.41
2022-11-08T17:13:03.263Z,100981.31
2022-11-08T17:15:34.327Z,100974.06
2022-11-08T17:18:05.307Z,100987.78
2022-11-08T17:20:38.051Z,100938.31
2022-11-08T17:23:10.327Z,100981.53
2022-11-08T17:25:44.178Z,100989.88
2022-11-08T17:28:15.349Z,100986.13
2022-11-08T17:30:46.457Z,100982.41
2022-11-08T17:33:17.641Z,100970.53
2022-11-08T17:35:48.575Z,100972.00
2022-11-08T17:38:19.371Z,100954.53
2022-11-08T17:40:50.201Z,100944.56
2022-11-08T17:43:22.049Z,100961.19
2022-11-08T17:45:52.520Z,100962.44
2022-11-08T17:48:23.368Z,100944.13
2022-11-08T17:50:54.847Z,100936.44
2022-11-08T17:53:26.291Z,100947.47
2022-11-08T17:56:00.626Z,100948.94
2022-11-08T17:58:33.761Z,100932.91
2022-11-08T18:01:07.035Z,100892.19
2022-11-08T18:03:37.986Z,100917.13
2022-11-08T18:06:12.770Z,100851.25
2022-11-08T18:08:44.104Z,100918.56
2022-11-08T18:11:15.188Z,100928.13
2022-11-08T18:13:46.093Z,100925.88
2022-11-08T18:16:20.579Z,100927.50
2022-11-08T18:18:53.435Z,100923.78
2022-11-08T18:21:24.668Z,100921.31
2022-11-08T18:23:55.525Z,100919.63
2022-11-08T18:26:26.285Z,100891.34
2022-11-08T18:28:58.849Z,100910.06
2022-11-08T18:31:30.754Z,100889.28
2022-11-08T18:34:02.425Z,100920.44
2022-11-08T18:36:33.930Z,100907.16
2022-11-08T18:39:05.104Z,100888.66
2022-11-08T18:41:36.206Z,100895.31
2022-11-08T18:44:07.907Z,100903.19
2022-11-08T18:46:43.147Z,100895.28
2022-11-08T18:49:14.636Z,100888.44
2022-11-08T18:51:45.535Z,100891.75
2022-11-08T18:54:16.352Z,100898.19
2022-11-08T18:56:47.194Z,100890.94
2022-11-08T18:59:18.515Z,100866.81
2022-11-08T19:01:49.498Z,100881.81
2022-11-08T19:04:22.046Z,100875.78
2022-11-08T19:06:54.775Z,100869.31
2022-11-08T19:09:25.935Z,100858.94
2022-11-08T19:11:59.438Z,100868.72
2022-11-08T19:14:32.593Z,100859.78
2022-11-08T19:17:03.508Z,100862.69
2022-11-08T19:19:34.477Z,100867.03
2022-11-08T19:22:05.935Z,100808.69
2022-11-08T19:24:37.147Z,100841.31
2022-11-08T19:27:07.987Z,100867.25
2022-11-08T19:29:39.464Z,100863.94
2022-11-08T19:32:10.259Z,100848.16
2022-11-08T19:34:41.114Z,100860.63
2022-11-08T19:37:11.985Z,100844.00
2022-11-08T19:39:42.887Z,100827.81
2022-11-08T19:42:13.717Z,100848.19
2022-11-08T19:44:44.628Z,100854.59
2022-11-08T19:47:15.433Z,100840.66
2022-11-08T19:49:47.163Z,100839.44
2022-11-08T19:52:17.978Z,100842.34
2022-11-08T19:54:48.853Z,100853.97
2022-11-08T19:57:20.767Z,100855.22
2022-11-08T19:59:55.419Z,100847.31
2022-11-08T20:02:26.842Z,100845.28
2022-11-08T20:04:58.014Z,100858.13
2022-11-08T20:07:28.772Z,100840.28
2022-11-08T20:09:59.698Z,100841.94
2022-11-08T20:12:33.792Z,100761.38
2022-11-08T20:15:04.695Z,100842.78
2022-11-08T20:17:36.910Z,100831.97
2022-11-08T20:20:08.753Z,100836.13
2022-11-08T20:22:41.086Z,100850.25
2022-11-08T20:25:12.080Z,100855.22
2022-11-08T20:27:42.984Z,100840.28
2022-11-08T20:30:14.684Z,100836.09
2022-11-08T20:32:45.566Z,100839.88
2022-11-08T20:35:23.462Z,100822.41
2022-11-08T20:37:58.725Z,100775.06
2022-11-08T20:40:29.569Z,100853.59
2022-11-08T20:43:00.364Z,100836.31
2022-11-08T20:45:31.173Z,100844.44
2022-11-08T20:48:02.849Z,100851.91
2022-11-08T20:50:35.443Z,100842.16
2022-11-08T20:53:06.215Z,100849.84
2022-11-08T20:55:37.253Z,100849.41
2022-11-08T20:58:08.048Z,100846.94
2022-11-08T21:00:57.195Z,100851.91
2022-11-08T21:03:30.362Z,100839.84
2022-11-08T21:06:04.166Z,100863.16
2022-11-08T21:11:27.560Z,100857.53
2022-11-08T21:13:59.661Z,100853.75
2022-11-08T21:16:38.142Z,100849.41
2022-11-08T21:19:13.524Z,100848.59
2022-11-08T21:21:47.562Z,100834.44
2022-11-08T21:24:18.831Z,100845.25
2022-11-08T21:26:49.713Z,100855.63
2022-11-08T21:29:20.712Z,100839.44
2022-11-08T21:31:52.265Z,100850.66
2022-11-08T21:34:25.033Z,100850.66
2022-11-08T21:36:59.958Z,100851.06
2022-11-08T21:39:30.904Z,100850.84
2022-11-08T21:42:01.776Z,100848.56
2022-11-08T21:44:33.983Z,100851.06
2022-11-08T21:47:04.847Z,100862.25
2022-11-08T21:49:35.690Z,100858.97
2022-11-08T21:52:06.866Z,100836.09
2022-11-08T21:54:37.918Z,100848.59
2022-11-08T21:57:08.876Z,100858.53
2022-11-08T21:59:39.747Z,100850.22
2022-11-08T22:02:12.111Z,100864.78
2022-11-08T22:04:43.467Z,100857.28
2022-11-08T22:07:14.330Z,100858.53
2022-11-08T22:09:46.045Z,100879.31
2022-11-08T22:12:17.736Z,100864.16
2022-11-08T22:14:48.599Z,100879.94
2022-11-08T22:17:20.881Z,100883.47
2022-11-08T22:19:51.997Z,100879.94
2022-11-08T22:22:22.859Z,100872.63
2022-11-08T22:24:53.818Z,100866.41
2022-11-08T22:27:24.881Z,100884.28
2022-11-08T22:29:56.119Z,100889.88
2022-11-08T22:32:26.996Z,100830.69
2022-11-08T22:34:57.887Z,100885.53
2022-11-08T22:37:28.777Z,100891.75
2022-11-08T22:39:59.999Z,100883.03
2022-11-08T22:42:30.879Z,100883.63
2022-11-08T22:45:01.845Z,100893.81
2022-11-08T22:47:32.992Z,100902.56
2022-11-08T22:50:03.944Z,100873.88
2022-11-08T22:52:34.739Z,100897.97
2022-11-08T22:55:05.768Z,100889.66
2022-11-08T22:57:36.593Z,100897.16
2022-11-08T23:00:11.330Z,100883.44
2022-11-08T23:02:42.278Z,100884.22
2022-11-08T23:05:13.276Z,100897.53
2022-11-08T23:07:44.799Z,100863.41
2022-11-08T23:10:15.673Z,100910.44
2022-11-08T23:13:05.039Z,100916.44
2022-11-08T23:15:55.470Z,100865.50
2022-11-08T23:18:26.752Z,100907.06
2022-11-08T23:21:17.802Z,100926.63
2022-11-08T23:24:07.487Z,100930.78
2022-11-08T23:26:56.848Z,100931.59
2022-11-08T23:29:45.675Z,100926.81
2022-11-08T23:32:16.721Z,100933.25
2022-11-08T23:34:48.012Z,100943.81
2022-11-08T23:37:18.884Z,100948.63
2022-11-08T23:40:07.924Z,100953.44
2022-11-08T23:42:56.985Z,100951.56
2022-11-08T23:45:28.504Z,100955.72
2022-11-08T23:47:59.555Z,100955.75
2022-11-08T23:50:30.349Z,100957.47
2022-11-08T23:53:01.819Z,100959.56
2022-11-08T23:55:35.394Z,100958.31
2022-11-08T23:58:06.283Z,100968.91
